createdAt,value
2023-05-08T00:06:29.796Z,23.2
2023-05-08T00:14:02.226Z,23.2
2023-05-08T00:21:34.640Z,23.2
2023-05-08T00:29:07.132Z,23.2
2023-05-08T00:36:39.574Z,23.2
2023-05-08T00:44:11.987Z,23.2
2023-05-08T00:51:44.408Z,23.2
2023-05-08T00:59:16.915Z,23.1
2023-05-08T01:06:49.361Z,23.1
2023-05-08T01:14:21.790Z,23.1
2023-05-08T01:21:54.233Z,23.1
2023-05-08T01:29:26.640Z,23.2
2023-05-08T01:36:59.043Z,23.2
2023-05-08T01:44:31.464Z,23.1
2023-05-08T01:52:03.901Z,23.1
2023-05-08T01:59:36.370Z,23.2
2023-05-08T02:07:08.798Z,23.2
2023-05-08T02:14:41.223Z,23.2
2023-05-08T02:22:13.644Z,23.1
2023-05-08T02:29:46.047Z,23.1
2023-05-08T02:37:18.471Z,23.1
2023-05-08T02:44:50.919Z,23.1
2023-05-08T02:52:23.341Z,23.0
2023-05-08T02:59:55.748Z,23.1
2023-05-08T03:07:28.167Z,23.1
2023-05-08T03:15:00.586Z,23.1
2023-05-08T03:22:32.999Z,23.1
2023-05-08T03:30:05.461Z,23.1
2023-05-08T03:37:37.894Z,23.0
2023-05-08T03:45:10.320Z,23.0
2023-05-08T03:52:42.739Z,23.0
2023-05-08T04:00:15.292Z,23.0
2023-05-08T04:07:47.768Z,22.9
2023-05-08T04:15:20.201Z,22.9
2023-05-08T04:22:52.598Z,23.0
2023-05-08T04:30:25.045Z,22.9
2023-05-08T04:37:57.476Z,22.9
2023-05-08T04:45:29.917Z,22.9
2023-05-08T04:53:02.346Z,23.0
2023-05-08T05:00:34.788Z,23.0
2023-05-08T05:08:07.217Z,23.0
2023-05-08T05:15:39.666Z,23.0
2023-05-08T05:23:12.120Z,23.0
2023-05-08T05:30:44.539Z,23.0
2023-05-08T05:38:16.953Z,23.0
2023-05-08T05:45:31.219Z,23.0
2023-05-08T05:46:20.677Z,23.0
2023-05-08T05:47:08.220Z,23.0
2023-05-08T05:47:55.754Z,23.0
2023-05-08T05:48:43.193Z,23.0
2023-05-08T05:49:30.619Z,23.0
2023-05-08T05:50:18.058Z,23.0
2023-05-08T05:51:05.512Z,23.0
2023-05-08T05:51:52.939Z,23.0
2023-05-08T05:52:40.365Z,23.0
2023-05-08T05:53:27.817Z,23.0
2023-05-08T05:54:15.250Z,23.0
2023-05-08T05:55:02.693Z,23.0
2023-05-08T05:55:50.088Z,22.9
2023-05-08T05:56:37.666Z,22.9
2023-05-08T05:57:25.119Z,22.9
2023-05-08T05:58:12.520Z,22.8
2023-05-08T05:59:00.526Z,22.7
2023-05-08T05:59:48.122Z,22.7
2023-05-08T06:00:36.073Z,22.6
2023-05-08T06:01:23.554Z,22.6
2023-05-08T06:02:11.941Z,22.6
2023-05-08T06:03:00.108Z,22.6
2023-05-08T06:03:48.001Z,22.6
2023-05-08T06:04:35.510Z,22.5
2023-05-08T06:05:22.970Z,22.4
2023-05-08T06:06:10.397Z,22.4
2023-05-08T06:06:57.826Z,22.4
2023-05-08T06:07:45.247Z,22.4
2023-05-08T06:08:32.666Z,22.4
2023-05-08T06:09:20.095Z,22.4
2023-05-08T06:10:07.511Z,22.4
2023-05-08T06:10:54.927Z,22.4
2023-05-08T06:11:42.414Z,22.4
2023-05-08T06:12:29.902Z,22.4
2023-05-08T06:13:17.380Z,22.5
2023-05-08T06:14:04.821Z,22.5
2023-05-08T06:14:52.258Z,22.5
2023-05-08T06:15:39.669Z,22.5
2023-05-08T06:16:27.155Z,22.5
2023-05-08T06:17:14.678Z,22.5
2023-05-08T06:18:02.177Z,22.5
2023-05-08T06:18:49.657Z,22.5
2023-05-08T06:19:37.085Z,22.6
2023-05-08T06:20:26.235Z,22.6
2023-05-08T06:21:13.925Z,22.6
2023-05-08T06:22:01.377Z,22.6
2023-05-08T06:22:48.790Z,22.6
2023-05-08T06:23:36.195Z,22.6
2023-05-08T06:24:23.722Z,22.6
2023-05-08T06:25:11.456Z,22.6
2023-05-08T06:25:59.211Z,22.5
2023-05-08T06:26:46.630Z,22.6
2023-05-08T06:27:34.033Z,22.6
2023-05-08T06:28:21.462Z,22.5
2023-05-08T06:29:08.875Z,22.6
2023-05-08T06:29:56.302Z,22.6
2023-05-08T06:30:43.860Z,22.5
2023-05-08T06:31:31.418Z,22.4
2023-05-08T06:32:19.155Z,22.4
2023-05-08T06:33:06.706Z,22.4
2023-05-08T06:33:54.511Z,22.4
2023-05-08T06:34:41.929Z,22.3
2023-05-08T06:35:29.425Z,22.3
2023-05-08T06:36:16.855Z,22.3
2023-05-08T06:37:04.280Z,22.3
2023-05-08T06:37:51.692Z,22.4
2023-05-08T06:38:39.132Z,22.4
2023-05-08T06:39:26.627Z,22.4
2023-05-08T06:40:14.038Z,22.3
2023-05-08T06:41:01.469Z,22.3
2023-05-08T06:41:48.881Z,22.3
2023-05-08T06:42:36.305Z,22.3
2023-05-08T06:43:23.776Z,22.3
2023-05-08T06:44:11.184Z,22.4
2023-05-08T06:44:58.623Z,22.4
2023-05-08T06:45:46.066Z,22.4
2023-05-08T06:46:33.692Z,22.4
2023-05-08T06:47:21.432Z,22.4
2023-05-08T06:48:08.955Z,22.4
2023-05-08T06:48:56.418Z,22.4
2023-05-08T06:49:43.929Z,22.4
2023-05-08T06:50:31.405Z,22.4
2023-05-08T06:51:18.862Z,22.4
2023-05-08T06:52:06.308Z,22.4
2023-05-08T06:52:53.733Z,22.4
2023-05-08T06:53:41.133Z,22.4
2023-05-08T06:54:28.565Z,22.4
2023-05-08T06:55:15.986Z,22.4
2023-05-08T06:56:03.455Z,22.5
2023-05-08T06:56:50.904Z,22.4
2023-05-08T06:57:38.401Z,22.4
2023-05-08T06:58:26.063Z,22.3
2023-05-08T06:59:13.504Z,22.3
2023-05-08T07:00:01.199Z,22.2
2023-05-08T07:00:48.643Z,22.2
2023-05-08T07:01:36.116Z,22.1
2023-05-08T07:02:23.571Z,22.0
2023-05-08T07:03:11.024Z,22.0
2023-05-08T07:03:58.513Z,21.9
2023-05-08T07:04:46.131Z,21.9
2023-05-08T07:05:33.800Z,21.9
2023-05-08T07:06:21.254Z,21.9
2023-05-08T07:07:08.663Z,21.9
2023-05-08T07:07:56.059Z,21.9
2023-05-08T07:08:43.537Z,21.9
2023-05-08T07:09:30.991Z,21.9
2023-05-08T07:10:18.610Z,21.8
2023-05-08T07:11:06.301Z,21.8
2023-05-08T07:11:53.735Z,21.8
2023-05-08T07:12:41.288Z,21.8
2023-05-08T07:13:28.973Z,21.8
2023-05-08T07:14:16.527Z,21.8
2023-05-08T07:15:13.779Z,21.8
2023-05-08T07:16:01.345Z,21.7
2023-05-08T07:16:48.798Z,21.6
2023-05-08T07:17:36.230Z,21.6
2023-05-08T07:18:23.660Z,21.5
2023-05-08T07:19:11.297Z,21.5
2023-05-08T07:19:58.789Z,21.5
2023-05-08T07:20:46.230Z,21.5
2023-05-08T07:21:33.669Z,21.5
2023-05-08T07:22:21.165Z,21.5
2023-05-08T07:23:08.677Z,21.5
2023-05-08T07:23:56.117Z,21.5
2023-05-08T07:24:43.566Z,21.5
2023-05-08T07:25:30.982Z,21.5
2023-05-08T07:26:18.424Z,21.5
2023-05-08T07:27:05.851Z,21.5
2023-05-08T07:27:53.350Z,21.5
2023-05-08T07:28:40.760Z,21.5
2023-05-08T07:29:28.184Z,21.5
2023-05-08T07:30:15.617Z,21.6
2023-05-08T07:31:03.074Z,21.6
2023-05-08T07:31:50.563Z,21.7
2023-05-08T07:32:38.214Z,21.7
2023-05-08T07:33:25.636Z,21.8
2023-05-08T07:34:13.065Z,21.8
2023-05-08T07:35:00.511Z,21.9
2023-05-08T07:35:47.959Z,21.9
2023-05-08T07:36:35.394Z,21.9
2023-05-08T07:37:22.787Z,21.9
2023-05-08T07:38:10.197Z,21.9
2023-05-08T07:38:57.602Z,21.9
2023-05-08T07:39:45.046Z,21.9
2023-05-08T07:40:32.549Z,21.9
2023-05-08T07:41:20.005Z,21.8
2023-05-08T07:42:07.739Z,21.8
2023-05-08T07:42:55.145Z,21.8
2023-05-08T07:43:42.778Z,21.8
2023-05-08T07:44:31.735Z,21.7
2023-05-08T07:45:24.655Z,21.7
2023-05-08T07:46:12.087Z,21.7
2023-05-08T07:46:59.566Z,21.7
2023-05-08T07:47:47.059Z,21.6
2023-05-08T07:48:34.528Z,21.7
2023-05-08T07:49:21.939Z,21.7
2023-05-08T07:50:09.393Z,21.7
2023-05-08T07:50:56.851Z,21.6
2023-05-08T07:51:44.306Z,21.6
2023-05-08T07:52:31.730Z,21.6
2023-05-08T07:53:19.154Z,21.6
2023-05-08T07:54:06.640Z,21.5
2023-05-08T07:54:54.101Z,21.5
2023-05-08T07:55:41.535Z,21.5
2023-05-08T07:56:29.002Z,21.5
2023-05-08T07:57:16.452Z,21.6
2023-05-08T07:58:03.845Z,21.5
2023-05-08T07:58:51.259Z,21.5
2023-05-08T07:59:38.702Z,21.6
2023-05-08T08:00:26.115Z,21.6
2023-05-08T08:01:13.555Z,21.6
2023-05-08T08:02:00.994Z,21.6
2023-05-08T08:02:48.686Z,21.6
2023-05-08T08:03:36.469Z,21.6
2023-05-08T08:04:24.065Z,21.6
2023-05-08T08:05:11.737Z,21.6
2023-05-08T08:05:59.478Z,21.6
2023-05-08T08:06:46.931Z,21.6
2023-05-08T08:07:34.578Z,21.5
2023-05-08T08:08:22.012Z,21.6
2023-05-08T08:09:09.420Z,21.6
2023-05-08T08:09:56.854Z,21.6
2023-05-08T08:10:44.274Z,21.5
2023-05-08T08:11:31.830Z,21.5
2023-05-08T08:12:19.277Z,21.5
2023-05-08T08:13:06.784Z,21.4
2023-05-08T08:13:54.220Z,21.4
2023-05-08T08:14:41.628Z,21.4
2023-05-08T08:15:29.078Z,21.4
2023-05-08T08:16:16.509Z,21.4
2023-05-08T08:17:04.085Z,21.5
2023-05-08T08:17:51.586Z,21.5
2023-05-08T08:18:39.018Z,21.6
2023-05-08T08:19:26.416Z,21.6
2023-05-08T08:20:13.841Z,21.7
2023-05-08T08:21:01.272Z,21.7
2023-05-08T08:21:48.686Z,21.8
2023-05-08T08:22:36.098Z,21.8
2023-05-08T08:23:23.522Z,21.9
2023-05-08T08:24:10.949Z,21.9
2023-05-08T08:24:58.597Z,22.0
2023-05-08T08:25:46.019Z,22.0
2023-05-08T08:26:33.500Z,22.1
2023-05-08T08:27:20.936Z,22.1
2023-05-08T08:28:08.399Z,22.1
2023-05-08T08:28:55.796Z,22.2
2023-05-08T08:29:43.228Z,22.2
2023-05-08T08:30:30.642Z,22.2
2023-05-08T08:31:18.125Z,22.3
2023-05-08T08:32:05.584Z,22.4
2023-05-08T08:32:53.183Z,22.4
2023-05-08T08:33:40.608Z,22.4
2023-05-08T08:34:28.150Z,22.4
2023-05-08T08:35:15.763Z,22.5
2023-05-08T08:36:04.032Z,22.5
2023-05-08T08:36:51.433Z,22.5
2023-05-08T08:37:38.901Z,22.5
2023-05-08T08:38:26.308Z,22.6
2023-05-08T08:39:15.318Z,22.6
2023-05-08T08:40:02.908Z,22.6
2023-05-08T08:40:50.367Z,22.7
2023-05-08T08:41:37.776Z,22.7
2023-05-08T08:42:25.210Z,22.7
2023-05-08T08:43:12.632Z,22.8
2023-05-08T08:44:00.065Z,22.8
2023-05-08T08:44:47.542Z,22.8
2023-05-08T08:45:34.949Z,22.8
2023-05-08T08:46:22.416Z,22.8
2023-05-08T08:47:09.886Z,22.9
2023-05-08T08:47:57.450Z,22.8
2023-05-08T08:48:45.354Z,22.9
2023-05-08T08:49:32.786Z,22.9
2023-05-08T08:50:20.227Z,22.9
2023-05-08T08:51:07.641Z,22.9
2023-05-08T08:51:55.055Z,22.9
2023-05-08T08:52:42.488Z,22.9
2023-05-08T08:53:29.942Z,23.0
2023-05-08T08:54:17.427Z,23.0
2023-05-08T08:55:04.842Z,23.0
2023-05-08T08:55:52.254Z,23.0
2023-05-08T08:56:39.661Z,23.0
2023-05-08T08:57:27.088Z,23.0
2023-05-08T08:58:15.204Z,23.1
2023-05-08T08:59:02.617Z,23.1
2023-05-08T08:59:50.029Z,23.1
2023-05-08T09:00:37.452Z,23.1
2023-05-08T09:01:24.946Z,23.1
2023-05-08T09:02:12.466Z,23.1
2023-05-08T09:03:00.077Z,23.1
2023-05-08T09:03:49.193Z,23.1
2023-05-08T09:04:37.388Z,23.1
2023-05-08T09:05:24.798Z,23.1
2023-05-08T09:06:12.198Z,23.1
2023-05-08T09:06:59.646Z,23.1
2023-05-08T09:07:47.067Z,23.1
2023-05-08T09:08:34.523Z,23.1
2023-05-08T09:09:21.952Z,23.1
2023-05-08T09:10:09.407Z,23.1
2023-05-08T09:10:56.835Z,23.1
2023-05-08T09:11:44.255Z,23.1
2023-05-08T09:12:31.696Z,23.1
2023-05-08T09:13:19.882Z,23.2
2023-05-08T09:14:07.503Z,23.2
2023-05-08T09:14:54.934Z,23.2
2023-05-08T09:15:42.351Z,23.2
2023-05-08T09:16:29.816Z,23.2
2023-05-08T09:17:17.284Z,23.2
2023-05-08T09:18:04.977Z,23.2
2023-05-08T09:18:52.417Z,23.3
2023-05-08T09:19:39.863Z,23.3
2023-05-08T09:20:27.377Z,23.3
2023-05-08T09:21:14.791Z,23.3
2023-05-08T09:22:02.275Z,23.3
2023-05-08T09:22:49.711Z,23.3
2023-05-08T09:23:37.135Z,23.2
2023-05-08T09:24:24.580Z,23.1
2023-05-08T09:25:12.291Z,23.1
2023-05-08T09:25:59.912Z,23.1
2023-05-08T09:26:47.348Z,23.0
2023-05-08T09:27:34.766Z,22.9
2023-05-08T09:28:22.201Z,22.8
2023-05-08T09:29:09.657Z,22.8
2023-05-08T09:29:57.102Z,22.7
2023-05-08T09:30:44.514Z,22.7
2023-05-08T09:31:32.772Z,22.6
2023-05-08T09:32:20.304Z,22.6
2023-05-08T09:33:08.047Z,22.5
2023-05-08T09:33:55.566Z,22.5
2023-05-08T09:34:42.975Z,22.4
2023-05-08T09:35:30.432Z,22.4
2023-05-08T09:36:17.883Z,22.3
2023-05-08T09:37:05.307Z,22.3
2023-05-08T09:37:52.731Z,22.3
2023-05-08T09:38:40.258Z,22.2
2023-05-08T09:39:27.741Z,22.2
2023-05-08T09:40:15.362Z,22.1
2023-05-08T09:41:03.081Z,22.1
2023-05-08T09:41:50.500Z,22.1
2023-05-08T09:42:37.962Z,22.1
2023-05-08T09:43:25.374Z,22.2
2023-05-08T09:44:12.771Z,22.2
2023-05-08T09:45:00.229Z,22.2
2023-05-08T09:45:47.691Z,22.3
2023-05-08T09:46:35.142Z,22.3
2023-05-08T09:47:22.713Z,22.3
2023-05-08T09:48:10.302Z,22.4
2023-05-08T09:48:57.900Z,22.4
2023-05-08T09:49:45.328Z,22.4
2023-05-08T09:50:32.730Z,22.5
2023-05-08T09:51:20.132Z,22.5
2023-05-08T09:52:07.597Z,22.5
2023-05-08T09:52:55.070Z,22.6
2023-05-08T09:53:42.567Z,22.6
2023-05-08T09:54:30.001Z,22.6
2023-05-08T09:55:17.430Z,22.7
2023-05-08T09:56:04.837Z,22.7
2023-05-08T09:56:52.259Z,22.7
2023-05-08T09:57:39.757Z,22.7
2023-05-08T09:58:27.264Z,22.7
2023-05-08T09:59:14.664Z,22.7
2023-05-08T10:00:02.069Z,22.7
2023-05-08T10:00:49.553Z,22.8
2023-05-08T10:01:37.048Z,22.8
2023-05-08T10:02:24.559Z,22.8
2023-05-08T10:03:12.087Z,22.8
2023-05-08T10:03:59.982Z,22.8
2023-05-08T10:04:47.542Z,22.8
2023-05-08T10:05:35.140Z,22.8
2023-05-08T10:06:22.655Z,22.8
2023-05-08T10:07:10.341Z,22.8
2023-05-08T10:07:57.755Z,22.7
2023-05-08T10:08:45.219Z,22.6
2023-05-08T10:09:46.805Z,22.6
2023-05-08T10:10:30.008Z,22.5
2023-05-08T10:11:17.448Z,22.5
2023-05-08T10:12:04.941Z,22.4
2023-05-08T10:12:52.425Z,22.4
2023-05-08T10:13:39.895Z,22.4
2023-05-08T10:14:27.322Z,22.4
2023-05-08T10:15:14.726Z,22.4
2023-05-08T10:16:02.178Z,22.5
2023-05-08T10:16:49.813Z,22.5
2023-05-08T10:17:37.325Z,22.5
2023-05-08T10:18:24.800Z,22.5
2023-05-08T10:19:12.213Z,22.6
2023-05-08T10:19:59.617Z,22.6
2023-05-08T10:20:47.048Z,22.6
2023-05-08T10:21:34.548Z,22.7
2023-05-08T10:22:21.992Z,22.7
2023-05-08T10:23:09.410Z,22.7
2023-05-08T10:23:56.830Z,22.8
2023-05-08T10:24:44.281Z,22.8
2023-05-08T10:25:31.690Z,22.8
2023-05-08T10:26:19.098Z,22.8
2023-05-08T10:27:07.765Z,22.8
2023-05-08T10:27:55.480Z,22.9
2023-05-08T10:28:42.898Z,22.9
2023-05-08T10:29:30.319Z,22.9
2023-05-08T10:30:17.798Z,22.9
2023-05-08T10:31:05.275Z,22.9
2023-05-08T10:31:52.755Z,22.9
2023-05-08T10:32:40.221Z,23.0
2023-05-08T10:33:28.956Z,23.0
2023-05-08T10:34:18.398Z,23.0
2023-05-08T10:35:06.073Z,23.0
2023-05-08T10:35:53.713Z,23.0
2023-05-08T10:36:41.139Z,23.0
2023-05-08T10:37:28.580Z,23.0
2023-05-08T10:38:16.073Z,23.0
2023-05-08T10:39:03.507Z,23.0
2023-05-08T10:39:51.023Z,23.0
2023-05-08T10:40:38.487Z,23.0
2023-05-08T10:41:25.915Z,23.0
2023-05-08T10:42:13.384Z,23.0
2023-05-08T10:43:00.808Z,23.1
2023-05-08T10:43:48.230Z,23.1
2023-05-08T10:44:35.671Z,23.1
2023-05-08T10:45:23.094Z,23.1
2023-05-08T10:46:10.571Z,23.1
2023-05-08T10:46:58.260Z,23.1
2023-05-08T10:47:46.153Z,23.1
2023-05-08T10:48:33.608Z,23.1
2023-05-08T10:49:21.030Z,23.1
2023-05-08T10:50:08.465Z,23.1
2023-05-08T10:50:55.881Z,23.1
2023-05-08T10:51:43.287Z,23.1
2023-05-08T10:52:30.736Z,23.1
2023-05-08T10:53:18.171Z,23.1
2023-05-08T10:54:05.591Z,23.2
2023-05-08T10:54:53.019Z,23.2
2023-05-08T10:55:40.438Z,23.2
2023-05-08T10:56:28.048Z,23.1
2023-05-08T10:57:15.496Z,23.1
2023-05-08T10:58:02.953Z,23.1
2023-05-08T10:58:50.391Z,23.1
2023-05-08T10:59:37.811Z,23.1
2023-05-08T11:00:25.256Z,23.1
2023-05-08T11:01:12.759Z,23.1
2023-05-08T11:02:00.341Z,23.1
2023-05-08T11:02:47.874Z,23.1
2023-05-08T11:03:35.672Z,23.1
2023-05-08T11:04:23.363Z,23.0
2023-05-08T11:05:10.946Z,23.0
2023-05-08T11:05:58.362Z,22.9
2023-05-08T11:06:45.887Z,22.8
2023-05-08T11:07:33.356Z,22.8
2023-05-08T11:08:20.803Z,22.8
2023-05-08T11:09:08.208Z,22.7
2023-05-08T11:09:55.615Z,22.8
2023-05-08T11:17:28.032Z,22.8
2023-05-08T11:24:10.687Z,22.6
2023-05-08T11:31:43.218Z,22.6
2023-05-08T11:39:15.693Z,22.6
2023-05-08T11:46:48.176Z,22.5
2023-05-08T11:54:20.655Z,22.4
2023-05-08T12:09:28.355Z,22.2
2023-05-08T12:17:00.775Z,22.2
2023-05-08T12:24:33.227Z,22.2
2023-05-08T12:32:05.664Z,22.1
2023-05-08T12:39:38.086Z,22.0
2023-05-08T12:47:10.508Z,22.0
2023-05-08T12:54:42.932Z,21.9
2023-05-08T13:02:15.499Z,21.8
2023-05-08T13:09:47.986Z,21.8
2023-05-08T13:17:20.427Z,21.7
2023-05-08T13:24:52.873Z,21.7
2023-05-08T13:32:25.341Z,21.7
2023-05-08T13:39:57.775Z,21.7
2023-05-08T13:47:30.208Z,21.6
2023-05-08T13:55:02.650Z,21.7
2023-05-08T14:02:35.158Z,21.8
2023-05-08T14:10:07.622Z,21.8
2023-05-08T14:17:40.060Z,21.8
2023-05-08T14:25:12.844Z,21.8
2023-05-08T14:32:45.476Z,21.9
2023-05-08T14:40:17.908Z,21.9
2023-05-08T14:47:50.354Z,22.0
2023-05-08T14:55:23.058Z,21.9
2023-05-08T15:02:55.663Z,21.9
2023-05-08T15:10:28.142Z,21.8
2023-05-08T15:18:00.603Z,21.8
2023-05-08T15:25:33.096Z,21.8
2023-05-08T15:33:05.535Z,21.8
2023-05-08T15:40:38.005Z,21.8
2023-05-08T15:48:10.480Z,21.7
2023-05-08T15:55:42.969Z,21.7
2023-05-08T16:03:15.526Z,21.6
2023-05-08T16:10:47.937Z,21.7
2023-05-08T16:18:20.331Z,21.7
2023-05-08T16:25:52.722Z,21.7
2023-05-08T16:33:25.126Z,21.8
2023-05-08T16:40:57.495Z,21.8
2023-05-08T16:48:29.889Z,21.7
2023-05-08T16:56:02.313Z,21.7
2023-05-08T17:03:34.831Z,21.7
2023-05-08T17:11:07.265Z,21.8
2023-05-08T17:18:39.656Z,21.7
2023-05-08T17:26:12.038Z,21.7
2023-05-08T17:33:44.464Z,21.8
2023-05-08T17:41:16.894Z,21.8
2023-05-08T17:48:49.277Z,21.8
2023-05-08T17:56:21.687Z,21.8
2023-05-08T18:03:54.025Z,21.8
2023-05-08T18:11:26.514Z,21.8
2023-05-08T18:18:58.940Z,21.8
2023-05-08T18:26:31.362Z,21.8
2023-05-08T18:34:03.794Z,21.7
2023-05-08T18:41:36.246Z,21.8
2023-05-08T18:49:08.667Z,21.8
2023-05-08T18:56:41.105Z,21.8
2023-05-08T19:04:13.740Z,21.8
2023-05-08T19:11:46.303Z,21.8
2023-05-08T19:19:18.713Z,21.8
2023-05-08T19:26:51.130Z,21.8
2023-05-08T19:34:23.651Z,21.8
2023-05-08T19:41:56.132Z,21.8
2023-05-08T19:49:28.587Z,21.8
2023-05-08T19:57:01.023Z,21.7
2023-05-08T20:04:39.994Z,21.7
2023-05-08T20:12:15.805Z,21.7
2023-05-08T20:19:48.276Z,21.7
2023-05-08T20:27:20.778Z,21.7
2023-05-08T20:34:53.216Z,21.7
2023-05-08T20:42:25.658Z,21.7
2023-05-08T20:49:58.117Z,21.6
2023-05-08T20:57:30.541Z,21.6
2023-05-08T21:05:03.033Z,21.6
2023-05-08T21:12:35.554Z,21.5
2023-05-08T21:20:07.974Z,21.5
2023-05-08T21:27:40.409Z,21.4
2023-05-08T21:35:13.113Z,21.3
2023-05-08T21:42:45.838Z,21.2
2023-05-08T21:50:18.323Z,21.2
2023-05-08T21:57:50.734Z,21.2
2023-05-08T22:05:23.191Z,21.2
2023-05-08T22:12:55.655Z,21.2
2023-05-08T22:20:28.101Z,21.2
2023-05-08T22:28:00.564Z,21.2
2023-05-08T22:35:32.961Z,21.1
2023-05-08T22:43:05.437Z,21.2
2023-05-08T22:50:37.874Z,21.2
2023-05-08T22:58:10.309Z,21.2
2023-05-08T23:05:42.703Z,21.1
2023-05-08T23:13:15.238Z,21.0
2023-05-08T23:20:47.684Z,21.0
2023-05-08T23:28:20.156Z,21.0
2023-05-08T23:35:52.563Z,20.9
2023-05-08T23:43:25.028Z,21.0
2023-05-08T23:50:57.529Z,21.0
2023-05-08T23:58:30.001Z,21.0
